Time;durP1;ratioP1;P1;durP2;ratioP2;P2;SDS_P1;SDS_P2;PMS_P1;PMS_P2;Temp;Humidity;BMP_temperature;BMP_pressure;BME280_temperature;BME280_humidity;BME280_pressure;Samples;Min_cycle;Max_cycle;Signal;HPM_P1;HPM_P2
2021/06/28 00:00:19;;;;;;;;;;;21.60;99.90;;;;;;5074686;28;20470;-58
2021/06/28 00:02:44;;;;;;;;;;;21.60;99.90;;;;;;5068354;28;20410;-58
2021/06/28 00:05:11;;;;;;;;;;;21.50;99.90;;;;;;5069007;28;19981;-58
2021/06/28 00:07:37;;;;;;;;;;;21.50;99.90;;;;;;5068615;28;20046;-58
2021/06/28 00:10:03;;;;;;;;;;;21.50;99.90;;;;;;5072027;28;20000;-59
2021/06/28 00:12:29;;;;;;;;;;;21.50;99.90;;;;;;5067958;28;20016;-58
2021/06/28 00:14:55;;;;;;;;;;;21.50;99.90;;;;;;5080185;28;20525;-58
2021/06/28 00:17:20;;;;;;;;;;;21.50;99.90;;;;;;5068870;28;19996;-59
2021/06/28 00:19:46;;;;;;;;;;;21.50;99.90;;;;;;5077048;28;20062;-58
2021/06/28 00:22:12;;;;;;;;;;;21.50;99.90;;;;;;5067415;28;20641;-58
2021/06/28 00:24:38;;;;;;;;;;;21.50;99.90;;;;;;5078038;28;20351;-59
2021/06/28 00:27:04;;;;;;;;;;;21.50;99.90;;;;;;5082826;28;19996;-59
2021/06/28 00:29:29;;;;;;;;;;;21.40;99.90;;;;;;5069851;28;20000;-59
2021/06/28 00:31:56;;;;;;;;;;;21.30;99.90;;;;;;5078633;28;20112;-59
2021/06/28 00:34:22;;;;;;;;;;;21.10;99.90;;;;;;5087652;28;20021;-59
2021/06/28 00:36:48;;;;;;;;;;;20.90;99.90;;;;;;5088431;28;20343;-59
2021/06/28 00:39:14;;;;;;;;;;;21.00;99.90;;;;;;5088798;28;19993;-58
2021/06/28 00:41:40;;;;;;;;;;;21.00;99.90;;;;;;5088389;28;19980;-59
2021/06/28 00:44:06;;;;;;;;;;;20.90;99.90;;;;;;5079068;28;20460;-58
2021/06/28 00:46:32;;;;;;;;;;;20.90;99.90;;;;;;5068780;28;19996;-58
2021/06/28 00:48:58;;;;;;;;;;;21.00;99.90;;;;;;5068521;28;19997;-58
2021/06/28 00:51:24;;;;;;;;;;;21.00;99.90;;;;;;5067137;28;20028;-58
2021/06/28 00:53:50;;;;;;;;;;;21.00;99.90;;;;;;5067569;28;19989;-58
2021/06/28 00:56:16;;;;;;;;;;;20.80;99.90;;;;;;5079653;28;19988;-58
2021/06/28 00:58:43;;;;;;;;;;;20.80;99.90;;;;;;5087353;28;19985;-59
2021/06/28 01:01:09;;;;;;;;;;;20.80;99.90;;;;;;5088258;28;20015;-58
2021/06/28 01:03:35;;;;;;;;;;;20.80;99.90;;;;;;5088014;28;19987;-58
2021/06/28 01:06:01;;;;;;;;;;;20.80;99.90;;;;;;5088590;28;20450;-59
2021/06/28 01:08:27;;;;;;;;;;;20.80;99.90;;;;;;5072235;28;20478;-58
2021/06/28 01:10:53;;;;;;;;;;;20.70;99.90;;;;;;5067458;28;20008;-59
2021/06/28 01:13:18;;;;;;;;;;;20.70;99.90;;;;;;5067301;28;20034;-58
2021/06/28 01:15:44;;;;;;;;;;;20.70;99.90;;;;;;5067650;28;19981;-58
2021/06/28 01:18:10;;;;;;;;;;;20.60;99.90;;;;;;5066241;28;20652;-59
2021/06/28 01:20:36;;;;;;;;;;;20.50;99.90;;;;;;5066829;28;20658;-58
2021/06/28 01:23:25;;;;;;;;;;;20.50;99.90;;;;;;5068353;28;20123;-59
2021/06/28 01:25:53;;;;;;;;;;;20.50;99.90;;;;;;5059565;28;20067;-58
2021/06/28 01:28:19;;;;;;;;;;;20.60;99.90;;;;;;5066002;28;20542;-58
2021/06/28 01:30:45;;;;;;;;;;;20.70;99.90;;;;;;5067612;28;20004;-59
2021/06/28 01:33:11;;;;;;;;;;;20.70;99.90;;;;;;5086088;28;20750;-59
2021/06/28 01:35:38;;;;;;;;;;;20.50;99.90;;;;;;5087407;28;19985;-59
2021/06/28 01:38:04;;;;;;;;;;;20.50;99.90;;;;;;5087549;28;20476;-58
2021/06/28 01:40:31;;;;;;;;;;;20.30;99.90;;;;;;5070581;28;20009;-58
2021/06/28 01:42:57;;;;;;;;;;;20.40;99.90;;;;;;5066937;28;20043;-58
2021/06/28 01:45:24;;;;;;;;;;;20.40;99.90;;;;;;5067414;28;19989;-58
2021/06/28 01:47:50;;;;;;;;;;;20.30;99.90;;;;;;5069228;28;20134;-58
2021/06/28 01:50:16;;;;;;;;;;;20.40;99.90;;;;;;5087323;28;20027;-58
2021/06/28 01:52:42;;;;;;;;;;;20.30;99.90;;;;;;5086761;28;20008;-58
2021/06/28 01:55:09;;;;;;;;;;;20.40;99.90;;;;;;5087391;28;20008;-58
2021/06/28 01:57:36;;;;;;;;;;;20.30;99.90;;;;;;5082919;28;20099;-58
2021/06/28 02:00:05;;;;;;;;;;;20.30;99.90;;;;;;5077602;28;19993;-58
2021/06/28 02:02:31;;;;;;;;;;;20.20;99.90;;;;;;5067208;28;19985;-58
2021/06/28 02:04:58;;;;;;;;;;;20.10;99.90;;;;;;5066995;28;20029;-58
2021/06/28 02:07:25;;;;;;;;;;;20.10;99.90;;;;;;5070885;28;19992;-58
2021/06/28 02:09:51;;;;;;;;;;;20.20;99.90;;;;;;5087053;28;19981;-57
2021/06/28 02:12:17;;;;;;;;;;;20.10;99.90;;;;;;5087089;28;20023;-58
2021/06/28 02:14:43;;;;;;;;;;;20.10;99.90;;;;;;5086970;28;20020;-57
2021/06/28 02:17:09;;;;;;;;;;;20.00;99.90;;;;;;5071501;28;20078;-58
2021/06/28 02:19:34;;;;;;;;;;;20.10;99.90;;;;;;5066654;28;20039;-58
2021/06/28 02:22:00;;;;;;;;;;;20.20;99.90;;;;;;5066235;28;19993;-58
2021/06/28 02:24:25;;;;;;;;;;;20.40;99.90;;;;;;5067000;28;19985;-58
2021/06/28 02:26:52;;;;;;;;;;;20.40;99.90;;;;;;5066481;28;19989;-58
2021/06/28 02:29:17;;;;;;;;;;;20.40;99.90;;;;;;5066401;28;20028;-58
2021/06/28 02:31:43;;;;;;;;;;;20.40;99.90;;;;;;5066478;28;20059;-58
2021/06/28 02:34:09;;;;;;;;;;;20.50;99.90;;;;;;5066681;28;19992;-58
2021/06/28 02:36:35;;;;;;;;;;;20.50;99.90;;;;;;5066653;28;19985;-58
2021/06/28 02:39:01;;;;;;;;;;;20.40;99.90;;;;;;5067212;28;19985;-58
2021/06/28 02:41:27;;;;;;;;;;;20.30;99.90;;;;;;5066788;28;20502;-58
2021/06/28 02:43:53;;;;;;;;;;;20.20;99.90;;;;;;5066724;28;19985;-58
2021/06/28 02:46:19;;;;;;;;;;;20.20;99.90;;;;;;5070761;28;20055;-58
2021/06/28 02:48:45;;;;;;;;;;;20.10;99.90;;;;;;5081140;28;19996;-57
2021/06/28 02:51:12;;;;;;;;;;;20.10;99.90;;;;;;5080559;28;20376;-57
2021/06/28 02:53:37;;;;;;;;;;;20.10;99.90;;;;;;5069665;28;20066;-58
2021/06/28 02:56:12;;;;;;;;;;;20.10;99.90;;;;;;5070334;28;20478;-57
2021/06/28 02:58:42;;;;;;;;;;;20.00;99.90;;;;;;5082804;28;20031;-57
2021/06/28 03:01:08;;;;;;;;;;;19.90;99.90;;;;;;5090651;28;20655;-58
2021/06/28 03:03:34;;;;;;;;;;;19.90;99.90;;;;;;5090050;28;19984;-58
2021/06/28 03:05:59;;;;;;;;;;;19.90;99.90;;;;;;5091301;28;20012;-58
2021/06/28 03:08:25;;;;;;;;;;;19.80;99.90;;;;;;5078514;28;19988;-58
2021/06/28 03:10:50;;;;;;;;;;;19.70;99.90;;;;;;5069935;28;20001;-57
2021/06/28 03:13:16;;;;;;;;;;;19.50;99.90;;;;;;5070146;28;19995;-58
2021/06/28 03:15:41;;;;;;;;;;;19.60;99.90;;;;;;5069867;28;19985;-58
2021/06/28 03:18:07;;;;;;;;;;;19.60;99.90;;;;;;5069567;28;20034;-57
2021/06/28 03:20:33;;;;;;;;;;;19.60;99.90;;;;;;5070055;28;19985;-57
2021/06/28 03:22:59;;;;;;;;;;;19.70;99.90;;;;;;5070554;28;19982;-57
2021/06/28 03:25:24;;;;;;;;;;;19.50;99.90;;;;;;5084370;28;20011;-58
2021/06/28 03:27:50;;;;;;;;;;;19.50;99.90;;;;;;5082963;28;20084;-58
2021/06/28 03:30:16;;;;;;;;;;;19.50;99.90;;;;;;5069790;28;19981;-58
2021/06/28 03:32:42;;;;;;;;;;;19.60;99.90;;;;;;5069261;28;20719;-57
2021/06/28 03:35:08;;;;;;;;;;;19.60;99.90;;;;;;5069417;28;20529;-58
2021/06/28 03:37:34;;;;;;;;;;;19.60;99.90;;;;;;5068732;28;20442;-58
2021/06/28 03:40:01;;;;;;;;;;;19.60;99.90;;;;;;5069568;28;19988;-57
2021/06/28 03:42:27;;;;;;;;;;;19.70;99.90;;;;;;5068951;28;19989;-57
2021/06/28 03:44:52;;;;;;;;;;;19.70;99.90;;;;;;5068815;28;19993;-57
2021/06/28 03:47:18;;;;;;;;;;;19.80;99.90;;;;;;5068519;28;20067;-57
2021/06/28 03:49:43;;;;;;;;;;;19.80;99.90;;;;;;5068540;28;19989;-57
2021/06/28 03:52:09;;;;;;;;;;;19.80;99.90;;;;;;5069067;28;20007;-57
2021/06/28 03:54:34;;;;;;;;;;;19.70;99.90;;;;;;5069206;28;19985;-57
2021/06/28 03:57:00;;;;;;;;;;;19.80;99.90;;;;;;5068967;28;19981;-57
2021/06/28 03:59:26;;;;;;;;;;;19.90;99.90;;;;;;5068645;28;19995;-58
2021/06/28 04:01:52;;;;;;;;;;;19.90;99.90;;;;;;5069211;28;20963;-57
2021/06/28 04:04:17;;;;;;;;;;;19.90;99.90;;;;;;5069164;28;19985;-58
2021/06/28 04:06:44;;;;;;;;;;;19.90;99.90;;;;;;5068869;28;20080;-57
2021/06/28 04:09:09;;;;;;;;;;;19.90;99.90;;;;;;5067115;28;19989;-57
2021/06/28 04:11:36;;;;;;;;;;;19.90;99.90;;;;;;5064194;28;20058;-57
2021/06/28 04:14:02;;;;;;;;;;;19.80;99.90;;;;;;5067842;28;20092;-57
2021/06/28 04:16:27;;;;;;;;;;;19.80;99.90;;;;;;5068612;28;20076;-57
2021/06/28 04:18:54;;;;;;;;;;;19.90;99.90;;;;;;5067221;28;19993;-57
2021/06/28 04:21:19;;;;;;;;;;;20.00;99.90;;;;;;5068846;28;19985;-57
2021/06/28 04:23:45;;;;;;;;;;;20.10;99.90;;;;;;5068509;28;20034;-58
2021/06/28 04:26:11;;;;;;;;;;;20.20;99.90;;;;;;5070748;28;19995;-57
2021/06/28 04:28:37;;;;;;;;;;;20.30;99.90;;;;;;5079900;28;19989;-58
2021/06/28 04:31:04;;;;;;;;;;;20.40;99.90;;;;;;5068887;28;20020;-58
2021/06/28 04:33:30;;;;;;;;;;;20.40;99.90;;;;;;5068686;28;19981;-58
2021/06/28 04:35:56;;;;;;;;;;;20.40;99.90;;;;;;5068436;28;19981;-58
2021/06/28 04:38:22;;;;;;;;;;;20.40;99.90;;;;;;5068573;28;19996;-58
2021/06/28 04:40:48;;;;;;;;;;;20.40;99.90;;;;;;5067605;28;19988;-58
2021/06/28 04:43:14;;;;;;;;;;;20.50;99.90;;;;;;5067091;28;20550;-57
2021/06/28 04:45:40;;;;;;;;;;;20.50;99.90;;;;;;5068186;28;20016;-58
2021/06/28 04:48:07;;;;;;;;;;;20.60;99.90;;;;;;5066467;28;20403;-58
2021/06/28 04:50:33;;;;;;;;;;;20.50;99.90;;;;;;5066616;28;20194;-58
2021/06/28 04:52:59;;;;;;;;;;;20.50;99.90;;;;;;5067380;28;19992;-58
2021/06/28 04:55:25;;;;;;;;;;;20.50;99.90;;;;;;5066647;28;19981;-58
2021/06/28 04:57:52;;;;;;;;;;;20.50;99.90;;;;;;5070731;28;20443;-58
2021/06/28 05:00:19;;;;;;;;;;;20.50;99.90;;;;;;5086945;28;20028;-57
2021/06/28 05:02:45;;;;;;;;;;;20.30;99.90;;;;;;5085950;28;20430;-58
2021/06/28 05:05:11;;;;;;;;;;;20.40;99.90;;;;;;5086807;28;20087;-58
2021/06/28 05:07:38;;;;;;;;;;;20.50;99.90;;;;;;5086135;28;20497;-58
2021/06/28 05:10:04;;;;;;;;;;;20.50;99.90;;;;;;5086204;28;20446;-58
2021/06/28 05:12:30;;;;;;;;;;;20.50;99.90;;;;;;5067932;28;20016;-58
2021/06/28 05:14:55;;;;;;;;;;;20.50;99.90;;;;;;5066247;28;19981;-58
2021/06/28 05:17:21;;;;;;;;;;;20.50;99.90;;;;;;5066302;28;19981;-60
2021/06/28 05:19:47;;;;;;;;;;;20.60;99.90;;;;;;5065545;28;20722;-60
2021/06/28 05:22:13;;;;;;;;;;;20.60;99.90;;;;;;5064418;28;19997;-60
2021/06/28 05:24:38;;;;;;;;;;;20.50;99.90;;;;;;5065802;28;19981;-60
2021/06/28 05:27:04;;;;;;;;;;;20.50;99.90;;;;;;5066196;28;19992;-60
2021/06/28 05:29:30;;;;;;;;;;;20.60;99.90;;;;;;5066111;28;19996;-60
2021/06/28 05:31:55;;;;;;;;;;;20.50;99.90;;;;;;5065486;28;20005;-61
2021/06/28 05:34:21;;;;;;;;;;;20.60;99.90;;;;;;5066393;28;19981;-61
2021/06/28 05:36:47;;;;;;;;;;;20.50;99.90;;;;;;5084399;28;20000;-60
2021/06/28 05:39:13;;;;;;;;;;;20.60;99.90;;;;;;5086189;28;19992;-61
2021/06/28 05:41:39;;;;;;;;;;;20.70;99.90;;;;;;5075265;28;19989;-60
2021/06/28 05:44:04;;;;;;;;;;;20.60;99.90;;;;;;5065701;28;19985;-60
2021/06/28 05:46:30;;;;;;;;;;;20.70;99.90;;;;;;5066600;28;20440;-60
2021/06/28 05:48:55;;;;;;;;;;;20.70;99.90;;;;;;5065842;28;20016;-61
2021/06/28 05:51:21;;;;;;;;;;;20.70;99.90;;;;;;5064995;28;20442;-60
2021/06/28 05:53:47;;;;;;;;;;;20.70;99.90;;;;;;5065381;28;19991;-60
2021/06/28 05:56:13;;;;;;;;;;;20.70;99.90;;;;;;5065812;28;19996;-60
2021/06/28 05:58:38;;;;;;;;;;;20.70;99.90;;;;;;5065311;28;19993;-60
2021/06/28 06:01:05;;;;;;;;;;;20.80;99.90;;;;;;5065135;28;19988;-60
2021/06/28 06:03:31;;;;;;;;;;;20.70;99.90;;;;;;5066002;28;20371;-61
2021/06/28 06:05:57;;;;;;;;;;;20.70;99.90;;;;;;5066466;28;19988;-61
2021/06/28 06:08:24;;;;;;;;;;;20.70;99.90;;;;;;5074736;28;19996;-61
2021/06/28 06:10:59;;;;;;;;;;;20.70;99.90;;;;;;5086789;28;19984;-61
2021/06/28 06:13:26;;;;;;;;;;;20.80;99.90;;;;;;5085822;28;19991;-60
2021/06/28 06:15:52;;;;;;;;;;;20.80;99.90;;;;;;5073405;28;20032;-61
2021/06/28 06:18:18;;;;;;;;;;;20.70;99.90;;;;;;5075404;28;20367;-60
2021/06/28 06:20:44;;;;;;;;;;;20.80;99.90;;;;;;5080143;28;19985;-60
2021/06/28 06:23:10;;;;;;;;;;;20.80;99.90;;;;;;5093838;28;19980;-60
2021/06/28 06:25:35;;;;;;;;;;;20.90;99.90;;;;;;5093647;28;19988;-60
2021/06/28 06:28:01;;;;;;;;;;;21.00;99.90;;;;;;5088149;28;19989;-60
2021/06/28 06:30:28;;;;;;;;;;;21.00;99.90;;;;;;5075602;28;19989;-60
2021/06/28 06:32:53;;;;;;;;;;;21.00;99.90;;;;;;5090829;28;20429;-60
2021/06/28 06:35:21;;;;;;;;;;;20.90;99.90;;;;;;5089981;28;19992;-60
2021/06/28 06:37:48;;;;;;;;;;;20.90;99.90;;;;;;5090218;28;20045;-60
2021/06/28 06:40:14;;;;;;;;;;;20.80;99.90;;;;;;5078990;28;19993;-61
2021/06/28 06:42:40;;;;;;;;;;;20.70;99.90;;;;;;5083763;28;20034;-61
2021/06/28 06:45:06;;;;;;;;;;;20.60;99.90;;;;;;5086974;28;19985;-61
2021/06/28 06:47:31;;;;;;;;;;;20.70;99.90;;;;;;5082513;28;19989;-61
2021/06/28 06:49:57;;;;;;;;;;;20.70;99.90;;;;;;5077554;28;19997;-61
2021/06/28 06:52:22;;;;;;;;;;;20.80;99.90;;;;;;5081151;28;20013;-61
2021/06/28 06:54:49;;;;;;;;;;;20.90;99.90;;;;;;5073338;28;19989;-61
2021/06/28 06:57:15;;;;;;;;;;;21.00;99.90;;;;;;5084299;28;19990;-61
2021/06/28 06:59:40;;;;;;;;;;;21.10;99.90;;;;;;5077512;28;19991;-61
2021/06/28 07:02:07;;;;;;;;;;;21.30;99.90;;;;;;5084412;28;19985;-61
2021/06/28 07:04:33;;;;;;;;;;;21.30;99.90;;;;;;5091413;28;19999;-61
2021/06/28 07:06:59;;;;;;;;;;;21.20;99.90;;;;;;5076117;28;20654;-61
2021/06/28 07:09:25;;;;;;;;;;;21.30;99.90;;;;;;5076806;28;20428;-61
2021/06/28 07:11:51;;;;;;;;;;;21.30;99.90;;;;;;5086281;28;20019;-61
2021/06/28 07:14:16;;;;;;;;;;;21.40;99.90;;;;;;5080344;28;19993;-61
2021/06/28 07:16:42;;;;;;;;;;;21.50;99.90;;;;;;5079932;28;19993;-61
2021/06/28 07:19:08;;;;;;;;;;;21.70;99.90;;;;;;5075356;28;20000;-61
2021/06/28 07:21:34;;;;;;;;;;;21.60;99.90;;;;;;5072835;28;20035;-61
2021/06/28 07:24:00;;;;;;;;;;;21.40;99.90;;;;;;5073178;28;20031;-59
2021/06/28 07:26:26;;;;;;;;;;;21.40;99.90;;;;;;5071531;28;19985;-59
2021/06/28 07:28:53;;;;;;;;;;;21.50;99.90;;;;;;5070861;28;20042;-59
2021/06/28 07:31:19;;;;;;;;;;;21.50;99.90;;;;;;5068596;28;20001;-58
2021/06/28 07:33:45;;;;;;;;;;;21.20;99.90;;;;;;5068011;28;20060;-58
2021/06/28 07:36:11;;;;;;;;;;;20.80;99.90;;;;;;5068275;28;19982;-58
2021/06/28 07:38:37;;;;;;;;;;;20.60;99.90;;;;;;5067594;28;19996;-58
2021/06/28 07:41:04;;;;;;;;;;;20.60;99.90;;;;;;5068375;28;19989;-58
2021/06/28 07:43:30;;;;;;;;;;;20.40;99.90;;;;;;5069985;28;19985;-58
2021/06/28 07:45:57;;;;;;;;;;;20.30;99.90;;;;;;5069320;28;19988;-58
2021/06/28 07:48:23;;;;;;;;;;;20.10;99.90;;;;;;5069027;28;20004;-59
2021/06/28 07:50:48;;;;;;;;;;;20.10;99.90;;;;;;5069123;28;19989;-58
2021/06/28 07:53:14;;;;;;;;;;;20.30;99.90;;;;;;5069458;28;20448;-58
2021/06/28 07:55:44;;;;;;;;;;;20.30;99.90;;;;;;5069199;28;20028;-60
2021/06/28 07:58:10;;;;;;;;;;;20.40;99.90;;;;;;5069126;28;19989;-60
2021/06/28 08:00:36;;;;;;;;;;;20.20;99.90;;;;;;5070250;28;20495;-60
2021/06/28 08:03:02;;;;;;;;;;;20.30;99.90;;;;;;5069852;28;19987;-58
2021/06/28 08:05:28;;;;;;;;;;;20.40;99.90;;;;;;5069564;28;20075;-58
2021/06/28 08:07:53;;;;;;;;;;;20.40;99.90;;;;;;5068890;28;20093;-57
2021/06/28 08:10:19;;;;;;;;;;;20.50;99.90;;;;;;5072699;28;19984;-58
2021/06/28 08:12:46;;;;;;;;;;;20.40;99.90;;;;;;5087303;28;20011;-58
2021/06/28 08:15:19;;;;;;;;;;;20.70;99.90;;;;;;5067840;28;20035;-58
2021/06/28 08:17:49;;;;;;;;;;;20.80;99.90;;;;;;5067477;28;20024;-58
2021/06/28 08:20:15;;;;;;;;;;;20.80;99.90;;;;;;5067498;28;19981;-59
2021/06/28 08:22:43;;;;;;;;;;;20.80;99.90;;;;;;5067238;28;20008;-59
2021/06/28 08:25:09;;;;;;;;;;;21.00;99.90;;;;;;5068095;28;19989;-59
2021/06/28 08:27:35;;;;;;;;;;;21.30;99.90;;;;;;5067193;28;20038;-59
2021/06/28 08:30:06;;;;;;;;;;;21.00;99.90;;;;;;5067451;28;19993;-59
2021/06/28 08:32:33;;;;;;;;;;;21.10;99.90;;;;;;5067706;28;20016;-60
2021/06/28 08:34:59;;;;;;;;;;;20.90;99.90;;;;;;5067635;28;20071;-60
2021/06/28 08:37:26;;;;;;;;;;;21.30;99.90;;;;;;5067145;28;20027;-59
2021/06/28 08:39:51;;;;;;;;;;;21.40;99.90;;;;;;5066850;28;19981;-59
2021/06/28 08:42:18;;;;;;;;;;;21.40;99.90;;;;;;5066374;28;20367;-59
2021/06/28 08:44:44;;;;;;;;;;;21.50;99.90;;;;;;5066706;28;19993;-60
2021/06/28 08:47:11;;;;;;;;;;;21.50;99.90;;;;;;5067186;28;19993;-59
2021/06/28 08:49:37;;;;;;;;;;;21.40;99.90;;;;;;5066561;28;19995;-59
2021/06/28 08:52:04;;;;;;;;;;;21.60;99.90;;;;;;5066709;28;20019;-59
2021/06/28 08:54:30;;;;;;;;;;;21.70;99.90;;;;;;5067357;28;20009;-59
2021/06/28 08:56:57;;;;;;;;;;;21.80;99.90;;;;;;5066540;28;20070;-59
2021/06/28 08:59:23;;;;;;;;;;;21.90;99.90;;;;;;5066830;28;20254;-59
2021/06/28 09:01:49;;;;;;;;;;;22.00;99.90;;;;;;5066561;28;20081;-59
2021/06/28 09:04:16;;;;;;;;;;;22.10;99.90;;;;;;5066467;28;20036;-59
2021/06/28 09:06:43;;;;;;;;;;;21.90;99.90;;;;;;5066424;28;19992;-60
2021/06/28 09:09:10;;;;;;;;;;;21.90;99.90;;;;;;5066483;28;20004;-59
2021/06/28 09:11:40;;;;;;;;;;;21.90;99.90;;;;;;5065370;28;20005;-59
2021/06/28 09:14:06;;;;;;;;;;;22.00;99.90;;;;;;5066096;28;20459;-59
2021/06/28 09:16:33;;;;;;;;;;;22.00;99.90;;;;;;5067160;28;20347;-59
2021/06/28 09:19:13;;;;;;;;;;;21.90;99.90;;;;;;5066788;28;19988;-59
2021/06/28 09:21:41;;;;;;;;;;;21.90;99.90;;;;;;5066006;28;20059;-59
2021/06/28 09:24:27;;;;;;;;;;;22.00;99.90;;;;;;5066212;28;20013;-59
2021/06/28 09:26:55;;;;;;;;;;;22.00;99.90;;;;;;5057255;28;20643;-59
2021/06/28 09:29:31;;;;;;;;;;;22.10;99.90;;;;;;5066156;28;19981;-59
2021/06/28 09:31:57;;;;;;;;;;;22.20;99.90;;;;;;5066137;28;20044;-59
2021/06/28 09:34:23;;;;;;;;;;;22.00;99.90;;;;;;5065975;28;20149;-59
2021/06/28 09:36:51;;;;;;;;;;;22.00;99.90;;;;;;5066126;28;20492;-59
2021/06/28 09:39:25;;;;;;;;;;;22.00;99.90;;;;;;5066089;28;20072;-59
2021/06/28 09:41:59;;;;;;;;;;;22.10;99.90;;;;;;5066045;28;19992;-59
2021/06/28 09:44:26;;;;;;;;;;;21.80;99.90;;;;;;5065356;28;20030;-59
2021/06/28 09:47:03;;;;;;;;;;;21.70;99.90;;;;;;5065217;28;20046;-59
2021/06/28 09:49:28;;;;;;;;;;;21.80;99.90;;;;;;5083568;28;19996;-59
2021/06/28 09:51:55;;;;;;;;;;;21.70;99.90;;;;;;5069933;28;20004;-58
2021/06/28 09:54:20;;;;;;;;;;;21.70;99.90;;;;;;5070714;28;19989;-59
2021/06/28 09:56:48;;;;;;;;;;;21.80;99.90;;;;;;5074984;28;19992;-59
2021/06/28 09:59:26;;;;;;;;;;;21.60;99.90;;;;;;5073017;28;19989;-59
2021/06/28 10:02:09;;;;;;;;;;;21.40;99.90;;;;;;5067047;28;19988;-59
2021/06/28 10:04:48;;;;;;;;;;;21.40;99.90;;;;;;5073449;28;19990;-59
2021/06/28 10:07:17;;;;;;;;;;;21.10;99.90;;;;;;5080741;28;20018;-59
2021/06/28 10:09:43;;;;;;;;;;;21.10;99.90;;;;;;5082048;28;19997;-59
2021/06/28 10:12:21;;;;;;;;;;;21.20;99.90;;;;;;5075417;28;20062;-60
2021/06/28 10:14:47;;;;;;;;;;;21.40;99.90;;;;;;5086833;28;20020;-59
2021/06/28 10:17:13;;;;;;;;;;;21.50;99.90;;;;;;5087235;28;20109;-59
2021/06/28 10:19:41;;;;;;;;;;;21.60;99.90;;;;;;5085844;28;19980;-60
2021/06/28 10:22:07;;;;;;;;;;;21.50;99.90;;;;;;5085083;28;20036;-59
2021/06/28 10:24:33;;;;;;;;;;;21.60;99.90;;;;;;5085707;28;19985;-60
2021/06/28 10:26:59;;;;;;;;;;;21.40;99.90;;;;;;5072075;28;20382;-60
2021/06/28 10:29:25;;;;;;;;;;;21.40;99.90;;;;;;5065062;28;20020;-60
2021/06/28 10:31:53;;;;;;;;;;;21.50;99.90;;;;;;5065039;28;20528;-60
2021/06/28 10:34:19;;;;;;;;;;;21.40;99.90;;;;;;5066600;28;20040;-60
2021/06/28 10:36:46;;;;;;;;;;;21.50;99.90;;;;;;5073819;28;20435;-59
2021/06/28 10:39:22;;;;;;;;;;;21.50;99.90;;;;;;5074043;28;20189;-58
2021/06/28 10:41:52;;;;;;;;;;;21.40;99.90;;;;;;5084769;28;20101;-58
2021/06/28 10:44:19;;;;;;;;;;;21.40;99.90;;;;;;5074602;28;20083;-57
2021/06/28 10:46:46;;;;;;;;;;;21.20;99.90;;;;;;5064674;28;19985;-57
2021/06/28 10:49:12;;;;;;;;;;;20.80;99.90;;;;;;5068377;28;19997;-57
2021/06/28 10:51:49;;;;;;;;;;;20.50;99.90;;;;;;5073360;28;20011;-58
2021/06/28 10:54:18;;;;;;;;;;;20.10;99.90;;;;;;5064308;28;20075;-57
2021/06/28 10:56:48;;;;;;;;;;;19.80;99.90;;;;;;5063894;28;20386;-57
2021/06/28 10:59:13;;;;;;;;;;;19.60;99.90;;;;;;5065040;28;20134;-57
2021/06/28 11:01:43;;;;;;;;;;;19.70;99.90;;;;;;5072604;28;20087;-57
2021/06/28 11:04:11;;;;;;;;;;;19.70;99.90;;;;;;5080854;28;19996;-57
2021/06/28 11:06:43;;;;;;;;;;;19.80;99.90;;;;;;5072173;28;19996;-58
2021/06/28 11:09:09;;;;;;;;;;;19.80;99.90;;;;;;5076556;28;19996;-57
2021/06/28 11:11:51;;;;;;;;;;;19.80;99.90;;;;;;5068236;28;20005;-58
2021/06/28 11:14:19;;;;;;;;;;;19.90;99.90;;;;;;5067887;28;19989;-57
2021/06/28 11:16:57;;;;;;;;;;;20.10;99.90;;;;;;5082090;28;20441;-57
2021/06/28 11:19:42;;;;;;;;;;;20.30;99.90;;;;;;5068261;28;19996;-57
2021/06/28 11:22:26;;;;;;;;;;;20.40;99.90;;;;;;5068167;28;20368;-58
2021/06/28 11:25:11;;;;;;;;;;;20.50;99.90;;;;;;5071771;28;19989;-58
2021/06/28 11:27:38;;;;;;;;;;;20.50;99.90;;;;;;5069933;28;20518;-57
2021/06/28 11:30:13;;;;;;;;;;;20.40;99.90;;;;;;5089010;28;20020;-57
2021/06/28 11:32:54;;;;;;;;;;;20.30;99.90;;;;;;5089929;28;20012;-56
2021/06/28 11:35:34;;;;;;;;;;;20.40;99.90;;;;;;5081361;28;19997;-56
2021/06/28 11:38:12;;;;;;;;;;;20.50;99.90;;;;;;5077792;28;19989;-56
2021/06/28 11:40:41;;;;;;;;;;;20.40;99.90;;;;;;5069693;28;19989;-56
2021/06/28 11:43:07;;;;;;;;;;;20.40;99.90;;;;;;5069540;28;20098;-56
2021/06/28 11:45:59;;;;;;;;;;;20.50;99.90;;;;;;5074080;28;20087;-56
2021/06/28 11:48:35;;;;;;;;;;;20.60;99.90;;;;;;5087506;28;19996;-56
2021/06/28 11:51:10;;;;;;;;;;;20.60;99.90;;;;;;5085430;28;19988;-55
2021/06/28 11:53:35;;;;;;;;;;;20.70;99.90;;;;;;5076601;28;19981;-57
2021/06/28 11:56:18;;;;;;;;;;;20.60;99.90;;;;;;5088554;28;20451;-56
2021/06/28 11:58:50;;;;;;;;;;;20.60;99.90;;;;;;5070743;28;20169;-55
2021/06/28 12:01:16;;;;;;;;;;;20.60;99.90;;;;;;5068364;28;19989;-54
2021/06/28 12:03:42;;;;;;;;;;;20.40;99.90;;;;;;5067499;28;19981;-55
2021/06/28 12:06:09;;;;;;;;;;;20.50;99.90;;;;;;5068041;28;19999;-55
2021/06/28 12:08:35;;;;;;;;;;;20.40;99.90;;;;;;5067144;28;20447;-55
2021/06/28 12:11:02;;;;;;;;;;;20.40;99.90;;;;;;5067975;28;20413;-55
2021/06/28 12:13:37;;;;;;;;;;;20.20;99.90;;;;;;5067419;28;19988;-54
2021/06/28 12:16:15;;;;;;;;;;;20.20;99.90;;;;;;5067214;28;19989;-55
2021/06/28 12:18:40;;;;;;;;;;;20.40;99.90;;;;;;5066727;28;19981;-55
2021/06/28 12:21:07;;;;;;;;;;;20.40;99.90;;;;;;5066452;28;19996;-55
2021/06/28 12:23:32;;;;;;;;;;;20.50;99.90;;;;;;5067212;28;20418;-57
2021/06/28 12:26:07;;;;;;;;;;;20.50;99.90;;;;;;5067029;28;20140;-57
2021/06/28 12:28:34;;;;;;;;;;;20.30;99.90;;;;;;5066063;28;19997;-57
2021/06/28 12:31:00;;;;;;;;;;;20.40;99.90;;;;;;5066909;28;20137;-57
2021/06/28 12:33:28;;;;;;;;;;;20.30;99.90;;;;;;5066744;28;19988;-58
2021/06/28 12:35:59;;;;;;;;;;;20.40;99.90;;;;;;5066770;28;20193;-57
2021/06/28 12:38:26;;;;;;;;;;;20.10;99.90;;;;;;5066306;28;20336;-58
2021/06/28 12:40:51;;;;;;;;;;;20.30;99.90;;;;;;5070441;28;20072;-57
2021/06/28 12:43:19;;;;;;;;;;;20.30;99.90;;;;;;5076030;28;20092;-57
2021/06/28 12:45:46;;;;;;;;;;;20.40;99.90;;;;;;5083716;28;19985;-57
2021/06/28 12:48:15;;;;;;;;;;;20.60;99.90;;;;;;5082759;28;20015;-57
2021/06/28 12:50:40;;;;;;;;;;;20.80;99.90;;;;;;5065670;28;19985;-57
2021/06/28 12:53:12;;;;;;;;;;;20.80;99.90;;;;;;5065896;28;20012;-57
2021/06/28 12:55:38;;;;;;;;;;;20.90;99.90;;;;;;5066224;28;20307;-58
2021/06/28 12:58:17;;;;;;;;;;;21.00;99.90;;;;;;5065996;28;20077;-58
2021/06/28 13:00:44;;;;;;;;;;;20.90;99.90;;;;;;5066121;28;20492;-58
2021/06/28 13:03:13;;;;;;;;;;;20.80;99.90;;;;;;5066215;28;19981;-58
2021/06/28 13:05:44;;;;;;;;;;;20.90;99.90;;;;;;5065721;28;19985;-58
2021/06/28 13:08:31;;;;;;;;;;;20.90;99.90;;;;;;5065695;28;20456;-57
2021/06/28 13:11:00;;;;;;;;;;;21.00;99.90;;;;;;5074706;28;20049;-58
2021/06/28 13:13:28;;;;;;;;;;;21.10;99.90;;;;;;5071457;28;19992;-57
2021/06/28 13:16:08;;;;;;;;;;;21.00;99.90;;;;;;5070127;28;19993;-57
2021/06/28 13:18:34;;;;;;;;;;;21.00;99.90;;;;;;5073857;28;20031;-57
2021/06/28 13:21:13;;;;;;;;;;;20.90;99.90;;;;;;5085529;28;20520;-57
2021/06/28 13:23:39;;;;;;;;;;;20.80;99.90;;;;;;5071580;28;19999;-57
2021/06/28 13:26:11;;;;;;;;;;;20.90;99.90;;;;;;5065584;28;20016;-58
2021/06/28 13:28:37;;;;;;;;;;;20.90;99.90;;;;;;5073257;28;20018;-58
2021/06/28 13:31:02;;;;;;;;;;;20.90;99.90;;;;;;5085926;28;19993;-58
2021/06/28 13:33:29;;;;;;;;;;;21.00;99.90;;;;;;5084180;28;19995;-58
2021/06/28 13:36:10;;;;;;;;;;;21.10;99.90;;;;;;5085685;28;19981;-58
2021/06/28 13:38:49;;;;;;;;;;;20.90;99.90;;;;;;5084526;28;20505;-58
2021/06/28 13:41:16;;;;;;;;;;;20.70;99.90;;;;;;5084110;28;20344;-58
2021/06/28 13:43:41;;;;;;;;;;;20.80;99.90;;;;;;5076730;28;20083;-58
2021/06/28 13:46:08;;;;;;;;;;;20.80;99.90;;;;;;5078935;28;20111;-58
2021/06/28 13:48:34;;;;;;;;;;;20.80;99.90;;;;;;5075187;28;20307;-58
2021/06/28 13:51:08;;;;;;;;;;;20.80;99.90;;;;;;5078048;28;20098;-58
2021/06/28 13:53:33;;;;;;;;;;;20.80;99.90;;;;;;5084889;28;20396;-58
2021/06/28 13:55:59;;;;;;;;;;;20.80;99.90;;;;;;5085475;28;20079;-58
2021/06/28 13:58:25;;;;;;;;;;;20.80;99.90;;;;;;5074895;28;21251;-57
2021/06/28 14:00:52;;;;;;;;;;;20.90;99.90;;;;;;5069269;28;20012;-57
2021/06/28 14:03:17;;;;;;;;;;;20.80;99.90;;;;;;5064940;28;19985;-56
2021/06/28 14:05:44;;;;;;;;;;;20.80;99.90;;;;;;5064534;28;19993;-56
2021/06/28 14:08:13;;;;;;;;;;;20.80;99.90;;;;;;5072360;28;19989;-57
2021/06/28 14:10:39;;;;;;;;;;;20.90;99.90;;;;;;5085894;28;20012;-56
2021/06/28 14:13:05;;;;;;;;;;;21.00;99.90;;;;;;5081647;28;20454;-56
2021/06/28 14:15:31;;;;;;;;;;;21.00;99.90;;;;;;5065779;28;20323;-56
2021/06/28 14:17:56;;;;;;;;;;;21.00;99.90;;;;;;5068671;28;20035;-56